sensor_id;sensor_type;location;lat;lon;timestamp;temperature;humidity
11840;DHT22;5979;50.800;4.904;2022-07-23T00:01:42;17.40;99.90
11840;DHT22;5979;50.800;4.904;2022-07-23T00:04:08;17.30;99.90
11840;DHT22;5979;50.800;4.904;2022-07-23T00:06:33;17.30;99.90
11840;DHT22;5979;50.800;4.904;2022-07-23T00:08:59;17.30;99.90
11840;DHT22;5979;50.800;4.904;2022-07-23T00:11:24;17.30;99.90
11840;DHT22;5979;50.800;4.904;2022-07-23T00:13:50;17.20;99.90
11840;DHT22;5979;50.800;4.904;2022-07-23T00:16:16;17.30;99.90
11840;DHT22;5979;50.800;4.904;2022-07-23T00:18:41;17.20;99.90
11840;DHT22;5979;50.800;4.904;2022-07-23T00:21:07;17.20;99.90
11840;DHT22;5979;50.800;4.904;2022-07-23T00:23:33;17.20;99.90
11840;DHT22;5979;50.800;4.904;2022-07-23T00:25:58;17.10;99.90
11840;DHT22;5979;50.800;4.904;2022-07-23T00:28:24;17.10;99.90
11840;DHT22;5979;50.800;4.904;2022-07-23T00:30:50;17.10;99.90
11840;DHT22;5979;50.800;4.904;2022-07-23T00:33:16;17.10;99.90
11840;DHT22;5979;50.800;4.904;2022-07-23T00:35:42;17.10;99.90
11840;DHT22;5979;50.800;4.904;2022-07-23T00:38:09;17.10;99.90
11840;DHT22;5979;50.800;4.904;2022-07-23T00:40:36;17.10;99.90
11840;DHT22;5979;50.800;4.904;2022-07-23T00:43:03;17.10;99.90
11840;DHT22;5979;50.800;4.904;2022-07-23T00:45:29;17.00;99.90
11840;DHT22;5979;50.800;4.904;2022-07-23T00:47:55;17.00;99.90
11840;DHT22;5979;50.800;4.904;2022-07-23T00:50:21;17.00;99.90
11840;DHT22;5979;50.800;4.904;2022-07-23T00:52:46;16.90;99.90
11840;DHT22;5979;50.800;4.904;2022-07-23T00:55:12;16.90;99.90
11840;DHT22;5979;50.800;4.904;2022-07-23T00:57:39;16.80;99.90
11840;DHT22;5979;50.800;4.904;2022-07-23T01:00:07;16.80;99.90
11840;DHT22;5979;50.800;4.904;2022-07-23T01:02:33;16.80;99.90
11840;DHT22;5979;50.800;4.904;2022-07-23T01:04:59;16.80;99.90
11840;DHT22;5979;50.800;4.904;2022-07-23T01:07:24;16.80;99.90
11840;DHT22;5979;50.800;4.904;2022-07-23T01:09:51;16.70;99.90
11840;DHT22;5979;50.800;4.904;2022-07-23T01:12:17;16.70;99.90
11840;DHT22;5979;50.800;4.904;2022-07-23T01:14:43;16.70;99.90
11840;DHT22;5979;50.800;4.904;2022-07-23T01:17:09;16.70;99.90
11840;DHT22;5979;50.800;4.904;2022-07-23T01:19:34;16.60;99.90
11840;DHT22;5979;50.800;4.904;2022-07-23T01:22:02;16.60;99.90
11840;DHT22;5979;50.800;4.904;2022-07-23T01:24:29;16.60;99.90
11840;DHT22;5979;50.800;4.904;2022-07-23T01:26:55;16.60;99.90
11840;DHT22;5979;50.800;4.904;2022-07-23T01:29:21;16.50;99.90
11840;DHT22;5979;50.800;4.904;2022-07-23T01:31:47;16.60;99.90
11840;DHT22;5979;50.800;4.904;2022-07-23T01:34:13;16.50;99.90
11840;DHT22;5979;50.800;4.904;2022-07-23T01:36:39;16.50;99.90
11840;DHT22;5979;50.800;4.904;2022-07-23T01:39:06;16.50;99.90
11840;DHT22;5979;50.800;4.904;2022-07-23T01:41:32;16.50;99.90
11840;DHT22;5979;50.800;4.904;2022-07-23T01:43:58;16.40;99.90
11840;DHT22;5979;50.800;4.904;2022-07-23T01:46:23;16.40;99.90
11840;DHT22;5979;50.800;4.904;2022-07-23T01:48:50;16.40;99.90
11840;DHT22;5979;50.800;4.904;2022-07-23T01:51:15;16.40;99.90
11840;DHT22;5979;50.800;4.904;2022-07-23T01:53:41;16.40;99.90
11840;DHT22;5979;50.800;4.904;2022-07-23T01:56:07;16.40;99.90
11840;DHT22;5979;50.800;4.904;2022-07-23T01:58:32;16.40;99.90
11840;DHT22;5979;50.800;4.904;2022-07-23T02:00:58;16.40;99.90
11840;DHT22;5979;50.800;4.904;2022-07-23T02:03:24;16.40;99.90
11840;DHT22;5979;50.800;4.904;2022-07-23T02:05:50;16.30;99.90
11840;DHT22;5979;50.800;4.904;2022-07-23T02:08:16;16.30;99.90
11840;DHT22;5979;50.800;4.904;2022-07-23T02:10:42;16.30;99.90
11840;DHT22;5979;50.800;4.904;2022-07-23T02:13:07;16.30;99.90
11840;DHT22;5979;50.800;4.904;2022-07-23T02:15:33;16.30;99.90
11840;DHT22;5979;50.800;4.904;2022-07-23T02:17:59;16.30;99.90
11840;DHT22;5979;50.800;4.904;2022-07-23T02:20:25;16.30;99.90
11840;DHT22;5979;50.800;4.904;2022-07-23T02:22:51;16.30;99.90
11840;DHT22;5979;50.800;4.904;2022-07-23T02:25:16;16.30;99.90
11840;DHT22;5979;50.800;4.904;2022-07-23T02:27:42;16.30;99.90
11840;DHT22;5979;50.800;4.904;2022-07-23T02:30:08;16.30;99.90
11840;DHT22;5979;50.800;4.904;2022-07-23T02:32:35;16.20;99.90
11840;DHT22;5979;50.800;4.904;2022-07-23T02:35:00;16.20;99.90
11840;DHT22;5979;50.800;4.904;2022-07-23T02:37:27;16.20;99.90
11840;DHT22;5979;50.800;4.904;2022-07-23T02:39:52;16.20;99.90
11840;DHT22;5979;50.800;4.904;2022-07-23T02:42:18;16.20;99.90
11840;DHT22;5979;50.800;4.904;2022-07-23T02:44:44;16.20;99.90
11840;DHT22;5979;50.800;4.904;2022-07-23T02:47:10;16.20;99.90
11840;DHT22;5979;50.800;4.904;2022-07-23T02:49:35;16.10;99.90
11840;DHT22;5979;50.800;4.904;2022-07-23T02:52:02;16.10;99.90
11840;DHT22;5979;50.800;4.904;2022-07-23T02:54:27;16.10;99.90
11840;DHT22;5979;50.800;4.904;2022-07-23T02:56:53;16.00;99.90
11840;DHT22;5979;50.800;4.904;2022-07-23T02:59:19;16.00;99.90
11840;DHT22;5979;50.800;4.904;2022-07-23T03:01:45;16.00;99.90
11840;DHT22;5979;50.800;4.904;2022-07-23T03:04:11;15.90;99.90
11840;DHT22;5979;50.800;4.904;2022-07-23T03:06:37;15.90;99.90
11840;DHT22;5979;50.800;4.904;2022-07-23T03:09:04;15.90;99.90
11840;DHT22;5979;50.800;4.904;2022-07-23T03:11:29;15.90;99.90
11840;DHT22;5979;50.800;4.904;2022-07-23T03:13:55;15.80;99.90
11840;DHT22;5979;50.800;4.904;2022-07-23T03:16:21;15.80;99.90
11840;DHT22;5979;50.800;4.904;2022-07-23T03:18:46;15.80;99.90
11840;DHT22;5979;50.800;4.904;2022-07-23T03:21:12;15.80;99.90
11840;DHT22;5979;50.800;4.904;2022-07-23T03:23:38;15.80;99.90
11840;DHT22;5979;50.800;4.904;2022-07-23T03:26:04;15.80;99.90
11840;DHT22;5979;50.800;4.904;2022-07-23T03:28:29;15.70;99.90
11840;DHT22;5979;50.800;4.904;2022-07-23T03:30:56;15.70;99.90
11840;DHT22;5979;50.800;4.904;2022-07-23T03:33:22;15.70;99.90
11840;DHT22;5979;50.800;4.904;2022-07-23T03:35:48;15.60;99.90
11840;DHT22;5979;50.800;4.904;2022-07-23T03:38:16;15.60;99.90
11840;DHT22;5979;50.800;4.904;2022-07-23T03:40:42;15.60;99.90
11840;DHT22;5979;50.800;4.904;2022-07-23T03:43:08;15.60;99.90
11840;DHT22;5979;50.800;4.904;2022-07-23T03:45:33;15.60;99.90
11840;DHT22;5979;50.800;4.904;2022-07-23T03:47:59;15.60;99.90
11840;DHT22;5979;50.800;4.904;2022-07-23T03:50:25;15.50;99.90
11840;DHT22;5979;50.800;4.904;2022-07-23T03:52:51;15.50;99.90
11840;DHT22;5979;50.800;4.904;2022-07-23T03:55:17;15.50;99.90
11840;DHT22;5979;50.800;4.904;2022-07-23T03:57:43;15.50;99.90
11840;DHT22;5979;50.800;4.904;2022-07-23T04:00:10;15.50;99.90
11840;DHT22;5979;50.800;4.904;2022-07-23T04:02:37;15.50;99.90
11840;DHT22;5979;50.800;4.904;2022-07-23T04:05:03;15.50;99.90
11840;DHT22;5979;50.800;4.904;2022-07-23T04:07:29;15.50;99.90
11840;DHT22;5979;50.800;4.904;2022-07-23T04:09:55;15.50;99.90
11840;DHT22;5979;50.800;4.904;2022-07-23T04:12:21;15.50;99.90
11840;DHT22;5979;50.800;4.904;2022-07-23T04:14:46;15.50;99.90
11840;DHT22;5979;50.800;4.904;2022-07-23T04:17:12;15.60;99.90
11840;DHT22;5979;50.800;4.904;2022-07-23T04:19:38;15.60;99.90
11840;DHT22;5979;50.800;4.904;2022-07-23T04:22:07;15.60;99.90
11840;DHT22;5979;50.800;4.904;2022-07-23T04:24:33;15.70;99.90
11840;DHT22;5979;50.800;4.904;2022-07-23T04:26:59;15.70;99.90
11840;DHT22;5979;50.800;4.904;2022-07-23T04:29:24;15.80;99.90
11840;DHT22;5979;50.800;4.904;2022-07-23T04:31:51;15.80;99.90
11840;DHT22;5979;50.800;4.904;2022-07-23T04:34:16;15.90;99.90
11840;DHT22;5979;50.800;4.904;2022-07-23T04:36:42;16.00;99.90
11840;DHT22;5979;50.800;4.904;2022-07-23T04:39:08;16.00;99.90
11840;DHT22;5979;50.800;4.904;2022-07-23T04:41:33;16.10;99.90
11840;DHT22;5979;50.800;4.904;2022-07-23T04:44:00;16.20;99.90
11840;DHT22;5979;50.800;4.904;2022-07-23T04:46:25;16.30;99.90
11840;DHT22;5979;50.800;4.904;2022-07-23T04:48:51;16.40;99.90
11840;DHT22;5979;50.800;4.904;2022-07-23T04:51:17;16.60;99.90
11840;DHT22;5979;50.800;4.904;2022-07-23T04:53:42;16.90;99.90
11840;DHT22;5979;50.800;4.904;2022-07-23T04:56:08;17.20;99.90
11840;DHT22;5979;50.800;4.904;2022-07-23T04:58:34;17.70;99.90
11840;DHT22;5979;50.800;4.904;2022-07-23T05:00:59;18.10;99.90
11840;DHT22;5979;50.800;4.904;2022-07-23T05:03:25;18.50;99.90
11840;DHT22;5979;50.800;4.904;2022-07-23T05:05:51;19.00;99.90
11840;DHT22;5979;50.800;4.904;2022-07-23T05:08:16;19.30;99.90
11840;DHT22;5979;50.800;4.904;2022-07-23T05:10:42;19.70;99.90
11840;DHT22;5979;50.800;4.904;2022-07-23T05:13:08;20.10;99.90
11840;DHT22;5979;50.800;4.904;2022-07-23T05:15:34;20.40;99.90
11840;DHT22;5979;50.800;4.904;2022-07-23T05:17:59;20.50;99.90
11840;DHT22;5979;50.800;4.904;2022-07-23T05:20:25;20.50;99.90
11840;DHT22;5979;50.800;4.904;2022-07-23T05:22:51;20.60;99.90
11840;DHT22;5979;50.800;4.904;2022-07-23T05:25:16;20.70;99.90
11840;DHT22;5979;50.800;4.904;2022-07-23T05:27:42;20.70;99.90
11840;DHT22;5979;50.800;4.904;2022-07-23T05:30:08;20.90;99.90
11840;DHT22;5979;50.800;4.904;2022-07-23T05:32:34;21.20;99.90
11840;DHT22;5979;50.800;4.904;2022-07-23T05:35:02;21.20;99.90
11840;DHT22;5979;50.800;4.904;2022-07-23T05:37:28;21.40;99.90
11840;DHT22;5979;50.800;4.904;2022-07-23T05:39:54;21.40;99.90
11840;DHT22;5979;50.800;4.904;2022-07-23T05:42:19;21.70;99.90
11840;DHT22;5979;50.800;4.904;2022-07-23T05:44:45;21.90;99.90
11840;DHT22;5979;50.800;4.904;2022-07-23T05:47:10;22.10;99.90
11840;DHT22;5979;50.800;4.904;2022-07-23T05:49:37;22.20;99.90
11840;DHT22;5979;50.800;4.904;2022-07-23T05:52:05;22.30;99.90
11840;DHT22;5979;50.800;4.904;2022-07-23T05:54:31;22.20;99.90
11840;DHT22;5979;50.800;4.904;2022-07-23T05:56:56;22.30;99.90
11840;DHT22;5979;50.800;4.904;2022-07-23T05:59:22;22.30;99.90
11840;DHT22;5979;50.800;4.904;2022-07-23T06:01:48;22.60;99.90
11840;DHT22;5979;50.800;4.904;2022-07-23T06:04:13;22.70;99.90
11840;DHT22;5979;50.800;4.904;2022-07-23T06:06:39;22.50;99.90
11840;DHT22;5979;50.800;4.904;2022-07-23T06:09:04;22.10;99.90
11840;DHT22;5979;50.800;4.904;2022-07-23T06:11:30;21.80;99.90
11840;DHT22;5979;50.800;4.904;2022-07-23T06:13:56;21.70;99.90
11840;DHT22;5979;50.800;4.904;2022-07-23T06:16:21;21.50;99.90
11840;DHT22;5979;50.800;4.904;2022-07-23T06:18:47;21.20;99.90
11840;DHT22;5979;50.800;4.904;2022-07-23T06:21:13;21.20;99.90
11840;DHT22;5979;50.800;4.904;2022-07-23T06:23:38;21.30;99.90
11840;DHT22;5979;50.800;4.904;2022-07-23T06:26:04;21.30;99.90
11840;DHT22;5979;50.800;4.904;2022-07-23T06:28:29;21.10;99.90
11840;DHT22;5979;50.800;4.904;2022-07-23T06:30:55;21.10;99.90
11840;DHT22;5979;50.800;4.904;2022-07-23T06:33:21;21.20;99.90
11840;DHT22;5979;50.800;4.904;2022-07-23T06:35:47;21.20;99.90
11840;DHT22;5979;50.800;4.904;2022-07-23T06:38:12;21.20;99.90
11840;DHT22;5979;50.800;4.904;2022-07-23T06:40:38;21.20;99.90
11840;DHT22;5979;50.800;4.904;2022-07-23T06:43:04;21.30;99.90
11840;DHT22;5979;50.800;4.904;2022-07-23T06:45:29;21.30;99.90
11840;DHT22;5979;50.800;4.904;2022-07-23T06:47:55;21.50;99.90
11840;DHT22;5979;50.800;4.904;2022-07-23T06:50:21;21.90;99.90
11840;DHT22;5979;50.800;4.904;2022-07-23T06:52:46;22.10;99.90
11840;DHT22;5979;50.800;4.904;2022-07-23T06:55:12;22.30;99.90
11840;DHT22;5979;50.800;4.904;2022-07-23T06:57:37;22.60;99.90
11840;DHT22;5979;50.800;4.904;2022-07-23T07:00:03;22.50;99.90
11840;DHT22;5979;50.800;4.904;2022-07-23T07:02:30;22.80;99.90
11840;DHT22;5979;50.800;4.904;2022-07-23T07:04:55;22.90;99.90
11840;DHT22;5979;50.800;4.904;2022-07-23T07:07:21;23.20;99.90
11840;DHT22;5979;50.800;4.904;2022-07-23T07:09:47;23.40;99.90
11840;DHT22;5979;50.800;4.904;2022-07-23T07:12:12;23.50;99.90
11840;DHT22;5979;50.800;4.904;2022-07-23T07:14:38;23.50;99.90
11840;DHT22;5979;50.800;4.904;2022-07-23T07:17:04;23.60;99.90
11840;DHT22;5979;50.800;4.904;2022-07-23T07:19:30;23.60;99.90
11840;DHT22;5979;50.800;4.904;2022-07-23T07:21:55;23.70;99.90
11840;DHT22;5979;50.800;4.904;2022-07-23T07:24:21;23.80;99.90
11840;DHT22;5979;50.800;4.904;2022-07-23T07:26:47;23.90;99.90
11840;DHT22;5979;50.800;4.904;2022-07-23T07:29:15;23.90;99.90
11840;DHT22;5979;50.800;4.904;2022-07-23T07:31:41;23.60;99.90
11840;DHT22;5979;50.800;4.904;2022-07-23T07:34:08;23.50;99.90
11840;DHT22;5979;50.800;4.904;2022-07-23T07:36:33;23.70;99.90
11840;DHT22;5979;50.800;4.904;2022-07-23T07:39:00;23.90;99.90
11840;DHT22;5979;50.800;4.904;2022-07-23T07:41:25;24.20;99.90
11840;DHT22;5979;50.800;4.904;2022-07-23T07:43:52;24.30;99.90
11840;DHT22;5979;50.800;4.904;2022-07-23T07:46:18;24.40;99.90
11840;DHT22;5979;50.800;4.904;2022-07-23T07:48:43;24.50;99.90
11840;DHT22;5979;50.800;4.904;2022-07-23T07:51:09;24.70;99.90
11840;DHT22;5979;50.800;4.904;2022-07-23T07:53:35;24.70;99.90
11840;DHT22;5979;50.800;4.904;2022-07-23T07:56:00;24.80;99.90
11840;DHT22;5979;50.800;4.904;2022-07-23T07:58:26;24.80;99.90
11840;DHT22;5979;50.800;4.904;2022-07-23T08:00:52;24.90;99.90
11840;DHT22;5979;50.800;4.904;2022-07-23T08:03:17;24.90;99.90
11840;DHT22;5979;50.800;4.904;2022-07-23T08:05:43;25.00;99.90
11840;DHT22;5979;50.800;4.904;2022-07-23T08:08:09;25.20;99.90
11840;DHT22;5979;50.800;4.904;2022-07-23T08:10:40;25.30;99.90
11840;DHT22;5979;50.800;4.904;2022-07-23T08:13:06;25.60;99.90
11840;DHT22;5979;50.800;4.904;2022-07-23T08:15:32;25.20;99.90
11840;DHT22;5979;50.800;4.904;2022-07-23T08:17:58;24.80;99.90
11840;DHT22;5979;50.800;4.904;2022-07-23T08:20:24;24.90;99.90
11840;DHT22;5979;50.800;4.904;2022-07-23T08:25:27;24.90;99.90
11840;DHT22;5979;50.800;4.904;2022-07-23T08:27:54;25.00;99.90
11840;DHT22;5979;50.800;4.904;2022-07-23T08:30:20;25.00;99.90
11840;DHT22;5979;50.800;4.904;2022-07-23T08:35:43;24.90;99.90
11840;DHT22;5979;50.800;4.904;2022-07-23T08:38:12;24.80;99.90
11840;DHT22;5979;50.800;4.904;2022-07-23T08:40:49;24.80;99.90
11840;DHT22;5979;50.800;4.904;2022-07-23T08:43:18;24.90;99.90
11840;DHT22;5979;50.800;4.904;2022-07-23T08:45:46;24.90;99.90
11840;DHT22;5979;50.800;4.904;2022-07-23T08:50:42;24.60;99.90
11840;DHT22;5979;50.800;4.904;2022-07-23T08:53:09;24.80;99.90
11840;DHT22;5979;50.800;4.904;2022-07-23T08:55:35;24.90;99.90
11840;DHT22;5979;50.800;4.904;2022-07-23T08:58:01;25.00;99.90
11840;DHT22;5979;50.800;4.904;2022-07-23T09:00:27;25.20;99.90
11840;DHT22;5979;50.800;4.904;2022-07-23T09:02:53;25.40;99.90
11840;DHT22;5979;50.800;4.904;2022-07-23T09:05:19;25.50;99.90
11840;DHT22;5979;50.800;4.904;2022-07-23T09:18:39;25.10;99.90
11840;DHT22;5979;50.800;4.904;2022-07-23T09:21:08;25.20;99.90
11840;DHT22;5979;50.800;4.904;2022-07-23T09:31:25;25.80;99.90
11840;DHT22;5979;50.800;4.904;2022-07-23T09:33:51;25.80;99.90
11840;DHT22;5979;50.800;4.904;2022-07-23T09:36:28;25.80;99.90
11840;DHT22;5979;50.800;4.904;2022-07-23T09:38:54;25.90;99.90
11840;DHT22;5979;50.800;4.904;2022-07-23T09:41:20;26.00;99.90
11840;DHT22;5979;50.800;4.904;2022-07-23T09:43:46;26.10;99.90
11840;DHT22;5979;50.800;4.904;2022-07-23T09:46:26;26.10;99.90
11840;DHT22;5979;50.800;4.904;2022-07-23T09:48:56;25.90;99.90
11840;DHT22;5979;50.800;4.904;2022-07-23T09:51:22;25.70;99.90
11840;DHT22;5979;50.800;4.904;2022-07-23T09:53:58;25.70;99.90
11840;DHT22;5979;50.800;4.904;2022-07-23T09:56:23;25.90;99.90
11840;DHT22;5979;50.800;4.904;2022-07-23T09:58:53;25.70;99.90
11840;DHT22;5979;50.800;4.904;2022-07-23T10:01:37;25.80;99.90
11840;DHT22;5979;50.800;4.904;2022-07-23T10:04:04;26.10;99.90
11840;DHT22;5979;50.800;4.904;2022-07-23T10:06:31;26.10;99.90
11840;DHT22;5979;50.800;4.904;2022-07-23T10:08:58;26.20;99.90
11840;DHT22;5979;50.800;4.904;2022-07-23T10:11:27;26.30;99.90
11840;DHT22;5979;50.800;4.904;2022-07-23T10:13:54;26.40;99.90
11840;DHT22;5979;50.800;4.904;2022-07-23T10:16:27;26.70;99.90
11840;DHT22;5979;50.800;4.904;2022-07-23T10:18:53;27.10;99.90
11840;DHT22;5979;50.800;4.904;2022-07-23T10:21:44;27.10;99.90
11840;DHT22;5979;50.800;4.904;2022-07-23T10:24:12;27.20;99.90
11840;DHT22;5979;50.800;4.904;2022-07-23T10:27:31;26.70;99.90
11840;DHT22;5979;50.800;4.904;2022-07-23T10:30:02;26.70;99.90
11840;DHT22;5979;50.800;4.904;2022-07-23T10:32:37;27.00;99.90
11840;DHT22;5979;50.800;4.904;2022-07-23T10:37:53;27.20;99.90
11840;DHT22;5979;50.800;4.904;2022-07-23T10:40:21;27.30;99.90
11840;DHT22;5979;50.800;4.904;2022-07-23T10:42:50;27.60;99.90
11840;DHT22;5979;50.800;4.904;2022-07-23T10:45:35;27.60;99.90
11840;DHT22;5979;50.800;4.904;2022-07-23T10:48:18;27.50;99.90
11840;DHT22;5979;50.800;4.904;2022-07-23T10:51:06;27.30;99.90
11840;DHT22;5979;50.800;4.904;2022-07-23T10:54:20;27.30;99.90
11840;DHT22;5979;50.800;4.904;2022-07-23T10:59:23;27.20;99.90
11840;DHT22;5979;50.800;4.904;2022-07-23T11:01:49;27.30;99.90
11840;DHT22;5979;50.800;4.904;2022-07-23T11:04:15;27.20;99.90
11840;DHT22;5979;50.800;4.904;2022-07-23T11:09:26;27.20;99.90
11840;DHT22;5979;50.800;4.904;2022-07-23T11:15:11;27.20;99.90
11840;DHT22;5979;50.800;4.904;2022-07-23T11:20:14;27.30;99.90
11840;DHT22;5979;50.800;4.904;2022-07-23T11:27:54;27.10;99.90
11840;DHT22;5979;50.800;4.904;2022-07-23T11:32:52;26.90;99.90
11840;DHT22;5979;50.800;4.904;2022-07-23T11:35:28;27.00;99.90
11840;DHT22;5979;50.800;4.904;2022-07-23T11:38:06;27.10;99.90
11840;DHT22;5979;50.800;4.904;2022-07-23T11:40:33;26.80;99.90
11840;DHT22;5979;50.800;4.904;2022-07-23T11:43:02;26.90;99.90
11840;DHT22;5979;50.800;4.904;2022-07-23T11:45:34;27.10;99.90
11840;DHT22;5979;50.800;4.904;2022-07-23T11:48:01;27.10;99.90
11840;DHT22;5979;50.800;4.904;2022-07-23T11:50:27;27.30;99.90
11840;DHT22;5979;50.800;4.904;2022-07-23T11:52:53;27.50;99.90
11840;DHT22;5979;50.800;4.904;2022-07-23T11:55:20;27.60;99.90
11840;DHT22;5979;50.800;4.904;2022-07-23T11:57:46;27.70;99.90
11840;DHT22;5979;50.800;4.904;2022-07-23T12:00:15;27.80;99.90
11840;DHT22;5979;50.800;4.904;2022-07-23T12:02:50;27.90;99.90
11840;DHT22;5979;50.800;4.904;2022-07-23T12:05:23;28.10;99.90
11840;DHT22;5979;50.800;4.904;2022-07-23T12:07:53;28.30;99.90
11840;DHT22;5979;50.800;4.904;2022-07-23T12:10:23;28.20;99.90
11840;DHT22;5979;50.800;4.904;2022-07-23T12:12:49;28.20;99.90
11840;DHT22;5979;50.800;4.904;2022-07-23T12:15:18;28.00;99.90
11840;DHT22;5979;50.800;4.904;2022-07-23T12:17:45;28.10;99.90
11840;DHT22;5979;50.800;4.904;2022-07-23T12:20:26;28.20;99.90
11840;DHT22;5979;50.800;4.904;2022-07-23T12:22:58;28.40;99.90
11840;DHT22;5979;50.800;4.904;2022-07-23T12:25:27;28.60;99.90
11840;DHT22;5979;50.800;4.904;2022-07-23T12:28:07;28.70;99.90
11840;DHT22;5979;50.800;4.904;2022-07-23T12:30:47;28.70;99.90
11840;DHT22;5979;50.800;4.904;2022-07-23T12:33:22;28.70;99.90
11840;DHT22;5979;50.800;4.904;2022-07-23T12:35:50;28.70;99.90
11840;DHT22;5979;50.800;4.904;2022-07-23T12:38:19;28.70;99.90
11840;DHT22;5979;50.800;4.904;2022-07-23T12:45:51;28.10;99.90
11840;DHT22;5979;50.800;4.904;2022-07-23T12:48:20;27.90;99.90
11840;DHT22;5979;50.800;4.904;2022-07-23T12:53:18;27.90;99.90
11840;DHT22;5979;50.800;4.904;2022-07-23T12:55:45;27.90;99.90
11840;DHT22;5979;50.800;4.904;2022-07-23T12:58:19;28.10;99.90
11840;DHT22;5979;50.800;4.904;2022-07-23T13:00:55;27.90;99.90
11840;DHT22;5979;50.800;4.904;2022-07-23T13:03:39;27.70;99.90
11840;DHT22;5979;50.800;4.904;2022-07-23T13:06:10;27.80;99.90
11840;DHT22;5979;50.800;4.904;2022-07-23T13:08:38;27.80;99.90
11840;DHT22;5979;50.800;4.904;2022-07-23T13:11:06;27.90;99.90
11840;DHT22;5979;50.800;4.904;2022-07-23T13:13:33;27.80;99.90
11840;DHT22;5979;50.800;4.904;2022-07-23T13:15:59;27.90;99.90
11840;DHT22;5979;50.800;4.904;2022-07-23T13:18:26;28.10;99.90
11840;DHT22;5979;50.800;4.904;2022-07-23T13:20:52;28.20;99.90
11840;DHT22;5979;50.800;4.904;2022-07-23T13:23:18;28.30;99.90
11840;DHT22;5979;50.800;4.904;2022-07-23T13:25:45;28.40;99.90
11840;DHT22;5979;50.800;4.904;2022-07-23T13:28:12;28.50;99.90
11840;DHT22;5979;50.800;4.904;2022-07-23T13:30:39;28.50;99.90
11840;DHT22;5979;50.800;4.904;2022-07-23T13:33:05;28.30;99.90
11840;DHT22;5979;50.800;4.904;2022-07-23T13:35:32;28.40;99.90
11840;DHT22;5979;50.800;4.904;2022-07-23T13:37:58;28.30;99.90
11840;DHT22;5979;50.800;4.904;2022-07-23T13:40:24;28.30;99.90
11840;DHT22;5979;50.800;4.904;2022-07-23T13:42:49;28.20;99.90
11840;DHT22;5979;50.800;4.904;2022-07-23T13:45:15;28.00;99.90
11840;DHT22;5979;50.800;4.904;2022-07-23T13:47:41;27.90;99.90
11840;DHT22;5979;50.800;4.904;2022-07-23T13:50:07;27.80;99.90
11840;DHT22;5979;50.800;4.904;2022-07-23T13:52:33;27.80;99.90
11840;DHT22;5979;50.800;4.904;2022-07-23T13:55:03;27.80;99.90
11840;DHT22;5979;50.800;4.904;2022-07-23T13:57:30;27.90;99.90
11840;DHT22;5979;50.800;4.904;2022-07-23T13:59:55;27.90;99.90
11840;DHT22;5979;50.800;4.904;2022-07-23T14:02:21;27.80;99.90
11840;DHT22;5979;50.800;4.904;2022-07-23T14:04:48;27.80;99.90
11840;DHT22;5979;50.800;4.904;2022-07-23T14:07:13;27.90;99.90
11840;DHT22;5979;50.800;4.904;2022-07-23T14:09:39;27.90;99.90
11840;DHT22;5979;50.800;4.904;2022-07-23T14:12:05;27.90;99.90
11840;DHT22;5979;50.800;4.904;2022-07-23T14:14:31;28.00;99.90
11840;DHT22;5979;50.800;4.904;2022-07-23T14:16:57;27.90;99.90
11840;DHT22;5979;50.800;4.904;2022-07-23T14:19:23;27.90;99.90
11840;DHT22;5979;50.800;4.904;2022-07-23T14:21:49;27.90;99.90
11840;DHT22;5979;50.800;4.904;2022-07-23T14:24:15;27.90;99.90
11840;DHT22;5979;50.800;4.904;2022-07-23T14:26:41;27.90;99.90
11840;DHT22;5979;50.800;4.904;2022-07-23T14:29:07;28.10;99.90
11840;DHT22;5979;50.800;4.904;2022-07-23T14:31:33;28.20;99.90
11840;DHT22;5979;50.800;4.904;2022-07-23T14:33:58;28.20;99.90
11840;DHT22;5979;50.800;4.904;2022-07-23T14:36:25;28.10;99.90
11840;DHT22;5979;50.800;4.904;2022-07-23T14:38:51;28.10;99.90
11840;DHT22;5979;50.800;4.904;2022-07-23T14:41:16;28.10;99.90
11840;DHT22;5979;50.800;4.904;2022-07-23T14:43:42;28.10;99.90
11840;DHT22;5979;50.800;4.904;2022-07-23T14:46:09;28.20;99.90
11840;DHT22;5979;50.800;4.904;2022-07-23T14:48:35;28.30;99.90
11840;DHT22;5979;50.800;4.904;2022-07-23T14:51:01;28.40;99.90
11840;DHT22;5979;50.800;4.904;2022-07-23T14:53:27;28.50;99.90
11840;DHT22;5979;50.800;4.904;2022-07-23T14:55:52;28.50;99.90
11840;DHT22;5979;50.800;4.904;2022-07-23T14:58:18;28.40;99.90
11840;DHT22;5979;50.800;4.904;2022-07-23T15:00:44;28.40;99.90
11840;DHT22;5979;50.800;4.904;2022-07-23T15:03:09;28.30;99.90
11840;DHT22;5979;50.800;4.904;2022-07-23T15:05:35;28.30;99.90
11840;DHT22;5979;50.800;4.904;2022-07-23T15:08:01;28.30;99.90
11840;DHT22;5979;50.800;4.904;2022-07-23T15:10:26;28.20;99.90
11840;DHT22;5979;50.800;4.904;2022-07-23T15:12:52;28.10;99.90
11840;DHT22;5979;50.800;4.904;2022-07-23T15:15:17;28.10;99.90
11840;DHT22;5979;50.800;4.904;2022-07-23T15:17:43;28.10;99.90
11840;DHT22;5979;50.800;4.904;2022-07-23T15:20:09;28.00;99.90
11840;DHT22;5979;50.800;4.904;2022-07-23T15:22:35;28.00;99.90
11840;DHT22;5979;50.800;4.904;2022-07-23T15:25:01;28.00;99.90
11840;DHT22;5979;50.800;4.904;2022-07-23T15:27:27;28.00;99.90
11840;DHT22;5979;50.800;4.904;2022-07-23T15:29:53;27.90;99.90
11840;DHT22;5979;50.800;4.904;2022-07-23T15:32:19;27.90;99.90
11840;DHT22;5979;50.800;4.904;2022-07-23T15:34:44;27.90;99.90
11840;DHT22;5979;50.800;4.904;2022-07-23T15:37:10;27.90;99.90
11840;DHT22;5979;50.800;4.904;2022-07-23T15:39:36;27.90;99.90
11840;DHT22;5979;50.800;4.904;2022-07-23T15:42:02;28.00;99.90
11840;DHT22;5979;50.800;4.904;2022-07-23T15:44:28;28.10;99.90
11840;DHT22;5979;50.800;4.904;2022-07-23T15:46:54;28.10;99.90
11840;DHT22;5979;50.800;4.904;2022-07-23T15:49:20;28.10;99.90
11840;DHT22;5979;50.800;4.904;2022-07-23T15:51:46;28.10;99.90
11840;DHT22;5979;50.800;4.904;2022-07-23T15:54:12;28.00;99.90
11840;DHT22;5979;50.800;4.904;2022-07-23T15:56:38;27.90;99.90
11840;DHT22;5979;50.800;4.904;2022-07-23T15:59:04;27.90;99.90
11840;DHT22;5979;50.800;4.904;2022-07-23T16:01:30;28.00;99.90
11840;DHT22;5979;50.800;4.904;2022-07-23T16:03:56;27.90;99.90
11840;DHT22;5979;50.800;4.904;2022-07-23T16:06:24;27.90;99.90
11840;DHT22;5979;50.800;4.904;2022-07-23T16:08:50;27.90;99.90
11840;DHT22;5979;50.800;4.904;2022-07-23T16:11:16;27.90;99.90
11840;DHT22;5979;50.800;4.904;2022-07-23T16:13:42;27.90;99.90
11840;DHT22;5979;50.800;4.904;2022-07-23T16:16:09;27.90;99.90
11840;DHT22;5979;50.800;4.904;2022-07-23T16:18:35;27.90;99.90
11840;DHT22;5979;50.800;4.904;2022-07-23T16:21:01;27.90;99.90
11840;DHT22;5979;50.800;4.904;2022-07-23T16:23:27;27.90;99.90
11840;DHT22;5979;50.800;4.904;2022-07-23T16:25:53;27.90;99.90
11840;DHT22;5979;50.800;4.904;2022-07-23T16:28:18;27.90;99.90
11840;DHT22;5979;50.800;4.904;2022-07-23T16:30:44;27.70;99.90
11840;DHT22;5979;50.800;4.904;2022-07-23T16:33:10;27.80;99.90
11840;DHT22;5979;50.800;4.904;2022-07-23T16:35:36;27.80;99.90
11840;DHT22;5979;50.800;4.904;2022-07-23T16:38:02;27.80;99.90
11840;DHT22;5979;50.800;4.904;2022-07-23T16:40:29;27.60;99.90